Time,TemperatureF,DewpointF,PressureIn,WindDirection,WindDirectionDegrees,WindSpeedMPH,WindSpeedGustMPH,Humidity,HourlyPrecipIn,Conditions,Clouds,dailyrainin,SoftwareType,DateUTC
2013-07-30 00:00:00,62.6,60.2,29.87,WSW,244,0.0,0.0,92,0.00,,,0.19,Wunderground v.1.15,2013-07-30 04:00:00,
2013-07-30 00:06:00,62.6,60.2,29.87,WSW,244,0.0,0.0,92,0.00,,,0.00,Wunderground v.1.15,2013-07-30 04:06:00,
2013-07-30 00:10:00,62.6,60.2,29.87,WSW,244,0.0,0.0,92,0.00,,,0.00,Wunderground v.1.15,2013-07-30 04:10:00,
2013-07-30 00:15:00,62.5,60.1,29.87,WSW,244,0.0,0.0,92,0.00,,,0.00,Wunderground v.1.15,2013-07-30 04:15:00,
2013-07-30 00:20:00,62.5,60.1,29.87,WSW,244,0.0,0.0,92,0.00,,,0.00,Wunderground v.1.15,2013-07-30 04:20:00,
2013-07-30 00:25:00,62.6,60.2,29.87,WSW,244,0.0,0.0,92,0.00,,,0.00,Wunderground v.1.15,2013-07-30 04:25:00,
2013-07-30 00:30:00,62.5,60.1,29.88,WSW,244,0.0,0.0,92,0.00,,,0.00,Wunderground v.1.15,2013-07-30 04:30:00,
2013-07-30 00:55:00,62.0,59.6,29.88,WSW,244,0.0,0.0,92,0.00,,,0.00,Wunderground v.1.15,2013-07-30 04:55:00,
2013-07-30 01:00:00,61.8,59.1,29.88,WSW,244,0.0,0.0,91,0.00,,,0.00,Wunderground v.1.15,2013-07-30 05:00:00,
2013-07-30 01:06:00,61.4,58.7,29.88,WSW,244,0.0,0.0,91,0.00,,,0.00,Wunderground v.1.15,2013-07-30 05:06:00,
2013-07-30 01:15:00,60.8,58.2,29.88,WSW,244,0.0,0.0,91,0.00,,,0.00,Wunderground v.1.15,2013-07-30 05:15:00,
2013-07-30 01:25:00,60.4,58.1,29.88,WSW,244,0.0,0.0,92,0.00,,,0.00,Wunderground v.1.15,2013-07-30 05:25:00,
2013-07-30 01:30:00,60.3,58.0,29.88,WSW,244,0.0,0.0,92,0.00,,,0.00,Wunderground v.1.15,2013-07-30 05:30:00,
2013-07-30 01:35:00,60.2,57.9,29.88,WSW,244,0.0,0.0,92,0.00,,,0.00,Wunderground v.1.15,2013-07-30 05:35:00,
2013-07-30 01:40:00,60.0,57.7,29.88,WSW,244,0.0,0.0,92,0.00,,,0.00,Wunderground v.1.15,2013-07-30 05:40:00,
2013-07-30 01:50:00,59.6,57.6,29.88,WSW,244,0.0,0.0,93,0.00,,,0.00,Wunderground v.1.15,2013-07-30 05:50:00,
2013-07-30 01:55:00,59.4,57.4,29.88,WSW,244,0.0,0.0,93,0.00,,,0.00,Wunderground v.1.15,2013-07-30 05:55:00,
2013-07-30 02:05:00,59.0,57.0,29.88,WSW,244,0.0,0.0,93,0.00,,,0.00,Wunderground v.1.15,2013-07-30 06:05:00,
2013-07-30 02:25:00,58.3,56.6,29.88,WSW,244,0.0,0.0,94,0.00,,,0.00,Wunderground v.1.15,2013-07-30 06:25:00,
2013-07-30 02:35:00,58.0,56.3,29.88,WSW,244,0.0,0.0,94,0.00,,,0.00,Wunderground v.1.15,2013-07-30 06:35:00,
2013-07-30 02:40:00,57.8,56.1,29.88,WSW,244,0.0,0.0,94,0.00,,,0.00,Wunderground v.1.15,2013-07-30 06:40:00,
2013-07-30 02:50:00,57.7,56.3,29.88,WSW,244,0.0,0.0,95,0.00,,,0.00,Wunderground v.1.15,2013-07-30 06:50:00,
2013-07-30 03:00:00,57.7,56.3,29.88,WSW,244,0.0,0.0,95,0.00,,,0.00,Wunderground v.1.15,2013-07-30 07:00:00,
2013-07-30 03:06:00,57.7,56.3,29.88,WSW,244,0.0,0.0,95,0.00,,,0.00,Wunderground v.1.15,2013-07-30 07:06:00,
2013-07-30 03:15:00,57.7,56.6,29.88,WSW,244,0.0,0.0,96,0.00,,,0.00,Wunderground v.1.15,2013-07-30 07:15:00,
2013-07-30 03:25:00,57.8,56.7,29.88,WSW,244,0.0,0.0,96,0.00,,,0.00,Wunderground v.1.15,2013-07-30 07:25:00,
2013-07-30 03:30:00,57.8,56.7,29.88,WSW,244,0.0,0.0,96,0.00,,,0.00,Wunderground v.1.15,2013-07-30 07:30:00,
2013-07-30 03:40:00,57.8,56.7,29.88,WSW,244,0.0,0.0,96,0.00,,,0.00,Wunderground v.1.15,2013-07-30 07:40:00,
2013-07-30 03:50:00,57.8,56.7,29.88,WSW,244,0.0,1.0,96,0.00,,,0.00,Wunderground v.1.15,2013-07-30 07:50:00,
2013-07-30 04:15:00,58.1,57.0,29.89,WSW,244,1.0,2.0,96,0.00,,,0.00,Wunderground v.1.15,2013-07-30 08:15:00,
2013-07-30 04:25:00,58.5,57.4,29.89,WSW,244,1.0,2.0,96,0.00,,,0.00,Wunderground v.1.15,2013-07-30 08:25:00,
2013-07-30 04:30:00,58.8,57.7,29.89,WSW,244,1.0,1.0,96,0.00,,,0.00,Wunderground v.1.15,2013-07-30 08:30:00,
2013-07-30 04:35:00,59.0,57.9,29.89,WSW,244,1.0,2.0,96,0.00,,,0.00,Wunderground v.1.15,2013-07-30 08:35:00,
2013-07-30 04:45:00,59.3,57.9,29.89,WSW,244,1.0,2.0,95,0.00,,,0.00,Wunderground v.1.15,2013-07-30 08:45:00,
2013-07-30 04:50:00,59.3,57.9,29.89,WSW,244,1.0,2.0,95,0.00,,,0.00,Wunderground v.1.15,2013-07-30 08:50:00,
2013-07-30 05:00:00,59.5,57.8,29.89,WSW,244,1.0,1.0,94,0.00,,,0.00,Wunderground v.1.15,2013-07-30 09:00:00,
2013-07-30 05:10:00,59.5,57.8,29.89,WSW,244,1.0,2.0,94,0.00,,,0.00,Wunderground v.1.15,2013-07-30 09:10:00,
2013-07-30 05:20:00,59.6,57.9,29.89,WSW,244,1.0,1.0,94,0.00,,,0.00,Wunderground v.1.15,2013-07-30 09:20:00,
2013-07-30 05:30:00,59.6,57.9,29.90,WSW,244,0.0,0.0,94,0.00,,,0.00,Wunderground v.1.15,2013-07-30 09:30:00,
2013-07-30 05:40:00,59.5,57.8,29.90,WSW,244,0.0,0.0,94,0.00,,,0.00,Wunderground v.1.15,2013-07-30 09:40:00,
2013-07-30 05:50:00,59.6,57.9,29.90,WSW,244,0.0,0.0,94,0.00,,,0.00,Wunderground v.1.15,2013-07-30 09:50:00,
2013-07-30 06:00:00,59.5,57.8,29.90,WSW,244,0.0,0.0,94,0.00,,,0.00,Wunderground v.1.15,2013-07-30 10:00:00,
2013-07-30 06:06:00,59.4,57.7,29.90,WSW,244,0.0,0.0,94,0.00,,,0.00,Wunderground v.1.15,2013-07-30 10:06:00,
2013-07-30 06:20:00,59.1,57.1,29.90,WSW,244,0.0,0.0,93,0.00,,,0.00,Wunderground v.1.15,2013-07-30 10:20:00,
2013-07-30 06:25:00,59.0,57.0,29.90,WSW,244,0.0,0.0,93,0.00,,,0.00,Wunderground v.1.15,2013-07-30 10:25:00,
2013-07-30 06:35:00,58.8,57.1,29.90,WSW,244,0.0,0.0,94,0.00,,,0.00,Wunderground v.1.15,2013-07-30 10:35:00,
2013-07-30 06:55:00,59.7,58.3,29.91,WSW,244,1.0,1.0,95,0.00,,,0.00,Wunderground v.1.15,2013-07-30 10:55:00,
2013-07-30 07:06:00,60.3,58.6,29.91,WSW,244,0.0,2.0,94,0.00,,,0.00,Wunderground v.1.15,2013-07-30 11:06:00,
2013-07-30 07:15:00,60.9,59.2,29.91,WSW,244,0.0,1.0,94,0.00,,,0.00,Wunderground v.1.15,2013-07-30 11:15:00,
2013-07-30 07:25:00,61.3,59.3,29.92,WSW,244,0.0,1.0,93,0.00,,,0.00,Wunderground v.1.15,2013-07-30 11:25:00,
2013-07-30 07:35:00,61.7,59.7,29.92,WSW,244,0.0,1.0,93,0.00,,,0.00,Wunderground v.1.15,2013-07-30 11:35:00,
2013-07-30 07:45:00,62.2,60.2,29.93,WSW,244,0.0,0.0,93,0.00,,,0.00,Wunderground v.1.15,2013-07-30 11:45:00,
2013-07-30 07:50:00,62.5,60.1,29.93,WSW,244,0.0,0.0,92,0.00,,,0.00,Wunderground v.1.15,2013-07-30 11:50:00,
2013-07-30 08:00:00,63.1,60.4,29.93,WSW,244,1.0,1.0,91,0.00,,,0.00,Wunderground v.1.15,2013-07-30 12:00:00,
2013-07-30 08:06:00,63.5,60.8,29.92,WSW,244,1.0,1.0,91,0.00,,,0.00,Wunderground v.1.15,2013-07-30 12:06:00,
2013-07-30 08:15:00,63.8,60.8,29.93,WSW,244,0.0,2.0,90,0.00,,,0.00,Wunderground v.1.15,2013-07-30 12:15:00,
2013-07-30 08:20:00,64.1,61.1,29.93,WSW,244,0.0,1.0,90,0.00,,,0.00,Wunderground v.1.15,2013-07-30 12:20:00,
2013-07-30 08:25:00,64.7,61.4,29.93,WSW,244,1.0,1.0,89,0.00,,,0.00,Wunderground v.1.15,2013-07-30 12:25:00,
2013-07-30 08:35:00,65.7,62.0,29.93,WSW,244,1.0,2.0,88,0.00,,,0.00,Wunderground v.1.15,2013-07-30 12:35:00,
2013-07-30 08:45:00,66.5,62.2,29.93,WSW,254,1.0,1.0,86,0.00,,,0.00,Wunderground v.1.15,2013-07-30 12:45:00,
2013-07-30 09:00:00,67.7,63.0,29.93,West,280,1.0,1.0,85,0.00,,,0.00,Wunderground v.1.15,2013-07-30 13:00:00,
2013-07-30 09:10:00,68.1,62.4,29.93,West,268,1.0,1.0,82,0.00,,,0.00,Wunderground v.1.15,2013-07-30 13:10:00,
2013-07-30 09:15:00,68.3,62.2,29.93,West,268,2.0,2.0,81,0.00,,,0.00,Wunderground v.1.15,2013-07-30 13:15:00,
2013-07-30 09:25:00,68.3,62.2,29.93,West,259,1.0,2.0,81,0.00,,,0.00,Wunderground v.1.15,2013-07-30 13:25:00,
2013-07-30 09:35:00,69.0,61.9,29.93,SSW,202,1.0,3.0,78,0.00,,,0.00,Wunderground v.1.15,2013-07-30 13:35:00,
2013-07-30 09:45:00,69.4,62.2,29.93,WNW,302,1.0,3.0,78,0.00,,,0.00,Wunderground v.1.15,2013-07-30 13:45:00,
2013-07-30 09:50:00,69.8,62.6,29.93,West,265,1.0,1.0,78,0.00,,,0.00,Wunderground v.1.15,2013-07-30 13:50:00,
2013-07-30 09:55:00,70.3,62.0,29.93,West,261,1.0,1.0,75,0.00,,,0.00,Wunderground v.1.15,2013-07-30 13:55:00,
2013-07-30 10:06:00,70.1,62.6,29.93,NW,309,2.0,2.0,77,0.00,,,0.00,Wunderground v.1.15,2013-07-30 14:06:00,
2013-07-30 10:15:00,70.2,61.5,29.93,NW,304,3.0,3.0,74,0.00,,,0.00,Wunderground v.1.15,2013-07-30 14:15:00,
2013-07-30 10:25:00,70.8,61.7,29.93,NW,316,2.0,5.0,73,0.00,,,0.00,Wunderground v.1.15,2013-07-30 14:25:00,
2013-07-30 10:35:00,71.1,62.4,29.93,WNW,287,2.0,2.0,74,0.00,,,0.00,Wunderground v.1.15,2013-07-30 14:35:00,
2013-07-30 10:40:00,70.8,61.7,29.93,WNW,287,2.0,2.0,73,0.00,,,0.00,Wunderground v.1.15,2013-07-30 14:40:00,
2013-07-30 10:50:00,70.5,62.6,29.93,WNW,298,1.0,2.0,76,0.00,,,0.00,Wunderground v.1.15,2013-07-30 14:50:00,
2013-07-30 11:00:00,71.3,63.7,29.93,West,277,1.0,1.0,77,0.00,,,0.00,Wunderground v.1.15,2013-07-30 15:00:00,
2013-07-30 11:06:00,71.4,61.9,29.93,South,191,1.0,3.0,72,0.00,,,0.00,Wunderground v.1.15,2013-07-30 15:06:00,
2013-07-30 11:15:00,71.0,63.4,29.93,West,278,2.0,3.0,77,0.00,,,0.00,Wunderground v.1.15,2013-07-30 15:15:00,
2013-07-30 11:20:00,71.1,63.1,29.93,WNW,284,2.0,2.0,76,0.00,,,0.00,Wunderground v.1.15,2013-07-30 15:20:00,
2013-07-30 11:25:00,71.8,63.8,29.93,SSW,212,1.0,2.0,76,0.00,,,0.00,Wunderground v.1.15,2013-07-30 15:25:00,
2013-07-30 11:35:00,72.4,62.5,29.93,SW,223,1.0,2.0,71,0.00,,,0.00,Wunderground v.1.15,2013-07-30 15:35:00,
2013-07-30 11:40:00,72.2,63.4,29.93,West,267,2.0,2.0,74,0.00,,,0.00,Wunderground v.1.15,2013-07-30 15:40:00,
2013-07-30 11:45:00,71.5,62.8,29.93,West,279,2.0,2.0,74,0.00,,,0.00,Wunderground v.1.15,2013-07-30 15:45:00,
2013-07-30 11:55:00,71.8,63.1,29.93,West,273,1.0,3.0,74,0.00,,,0.00,Wunderground v.1.15,2013-07-30 15:55:00,
2013-07-30 12:06:00,72.1,63.0,29.92,West,272,2.0,4.0,73,0.00,,,0.00,Wunderground v.1.15,2013-07-30 16:06:00,
2013-07-30 12:15:00,73.1,63.9,29.92,WSW,253,2.0,3.0,73,0.00,,,0.00,Wunderground v.1.15,2013-07-30 16:15:00,
2013-07-30 12:20:00,72.6,64.2,29.92,West,268,2.0,3.0,75,0.00,,,0.00,Wunderground v.1.15,2013-07-30 16:20:00,
2013-07-30 12:30:00,72.3,63.9,29.92,SW,229,2.0,2.0,75,0.00,,,0.00,Wunderground v.1.15,2013-07-30 16:30:00,
2013-07-30 12:40:00,73.2,64.4,29.91,West,281,2.0,2.0,74,0.00,,,0.00,Wunderground v.1.15,2013-07-30 16:40:00,
2013-07-30 12:50:00,73.4,63.0,29.91,West,280,2.0,4.0,70,0.00,,,0.00,Wunderground v.1.15,2013-07-30 16:50:00,
2013-07-30 13:00:00,73.4,63.4,29.91,SSW,196,3.0,3.0,71,0.00,,,0.00,Wunderground v.1.15,2013-07-30 17:00:00,
2013-07-30 13:06:00,73.1,61.9,29.91,NNW,330,2.0,3.0,68,0.00,,,0.00,Wunderground v.1.15,2013-07-30 17:06:00,
2013-07-30 13:15:00,73.6,64.0,29.91,WNW,294,2.0,2.0,72,0.00,,,0.00,Wunderground v.1.15,2013-07-30 17:15:00,
2013-07-30 13:20:00,73.6,62.0,29.91,WNW,285,2.0,3.0,67,0.00,,,0.00,Wunderground v.1.15,2013-07-30 17:20:00,
2013-07-30 13:30:00,74.0,64.0,29.90,ESE,110,3.0,3.0,71,0.00,,,0.00,Wunderground v.1.15,2013-07-30 17:30:00,
2013-07-30 13:40:00,73.6,64.0,29.90,West,265,3.0,3.0,72,0.00,,,0.00,Wunderground v.1.15,2013-07-30 17:40:00,
2013-07-30 13:50:00,74.0,62.8,29.90,West,279,3.0,4.0,68,0.00,,,0.00,Wunderground v.1.15,2013-07-30 17:50:00,
2013-07-30 14:00:00,74.2,62.5,29.90,West,280,3.0,3.0,67,0.00,,,0.00,Wunderground v.1.15,2013-07-30 18:00:00,
2013-07-30 14:06:00,74.4,63.6,29.90,SSW,200,3.0,3.0,69,0.00,,,0.00,Wunderground v.1.15,2013-07-30 18:06:00,
2013-07-30 14:15:00,74.6,61.6,29.90,WSW,250,3.0,4.0,64,0.00,,,0.00,Wunderground v.1.15,2013-07-30 18:15:00,
2013-07-30 14:25:00,75.1,60.3,29.90,West,279,2.0,3.0,60,0.00,,,0.00,Wunderground v.1.15,2013-07-30 18:25:00,
2013-07-30 14:35:00,75.1,62.1,29.89,NW,305,3.0,4.0,64,0.00,,,0.00,Wunderground v.1.15,2013-07-30 18:35:00,
2013-07-30 14:40:00,75.4,60.5,29.90,SSW,203,2.0,2.0,60,0.00,,,0.00,Wunderground v.1.15,2013-07-30 18:40:00,
2013-07-30 14:45:00,75.6,63.0,29.89,West,272,2.0,2.0,65,0.00,,,0.00,Wunderground v.1.15,2013-07-30 18:45:00,
2013-07-30 14:55:00,76.0,61.1,29.89,West,281,2.0,5.0,60,0.00,,,0.00,Wunderground v.1.15,2013-07-30 18:55:00,
2013-07-30 15:06:00,76.0,62.9,29.89,West,271,2.0,2.0,64,0.00,,,0.00,Wunderground v.1.15,2013-07-30 19:06:00,
2013-07-30 15:15:00,76.2,63.1,29.89,NNE,25,1.0,2.0,64,0.00,,,0.00,Wunderground v.1.15,2013-07-30 19:15:00,
2013-07-30 15:25:00,76.8,64.6,29.89,East,84,2.0,3.0,66,0.00,,,0.00,Wunderground v.1.15,2013-07-30 19:25:00,
2013-07-30 15:35:00,77.1,61.7,29.89,WNW,292,1.0,3.0,59,0.00,,,0.00,Wunderground v.1.15,2013-07-30 19:35:00,
2013-07-30 15:45:00,76.5,63.4,29.89,WNW,301,2.0,5.0,64,0.00,,,0.00,Wunderground v.1.15,2013-07-30 19:45:00,
2013-07-30 15:55:00,75.8,61.4,29.89,WSW,252,2.0,2.0,61,0.00,,,0.00,Wunderground v.1.15,2013-07-30 19:55:00,
2013-07-30 16:06:00,75.7,62.7,29.89,North,9,2.0,7.0,64,0.00,,,0.00,Wunderground v.1.15,2013-07-30 20:06:00,
2013-07-30 16:15:00,75.0,61.5,29.89,West,267,2.0,3.0,63,0.00,,,0.00,Wunderground v.1.15,2013-07-30 20:15:00,
2013-07-30 16:25:00,75.3,62.7,29.89,WNW,298,2.0,3.0,65,0.00,,,0.00,Wunderground v.1.15,2013-07-30 20:25:00,
2013-07-30 16:35:00,75.9,61.9,29.89,West,261,2.0,2.0,62,0.00,,,0.00,Wunderground v.1.15,2013-07-30 20:35:00,
2013-07-30 16:45:00,76.0,62.5,29.89,WNW,300,2.0,5.0,63,0.00,,,0.00,Wunderground v.1.15,2013-07-30 20:45:00,
2013-07-30 16:55:00,76.7,63.2,29.89,NNE,18,1.0,3.0,63,0.00,,,0.00,Wunderground v.1.15,2013-07-30 20:55:00,
2013-07-30 17:06:00,76.8,61.9,29.88,West,263,2.0,2.0,60,0.00,,,0.00,Wunderground v.1.15,2013-07-30 21:06:00,
2013-07-30 17:15:00,77.1,61.2,29.88,WNW,298,1.0,1.0,58,0.00,,,0.00,Wunderground v.1.15,2013-07-30 21:15:00,
2013-07-30 17:25:00,75.9,62.4,29.88,WSW,242,1.0,2.0,63,0.00,,,0.00,Wunderground v.1.15,2013-07-30 21:25:00,
2013-07-30 17:35:00,75.6,62.6,29.88,WSW,242,0.0,1.0,64,0.00,,,0.00,Wunderground v.1.15,2013-07-30 21:35:00,
2013-07-30 17:40:00,75.6,62.6,29.88,WSW,243,1.0,1.0,64,0.00,,,0.00,Wunderground v.1.15,2013-07-30 21:40:00,
2013-07-30 17:50:00,75.7,62.7,29.88,SW,221,1.0,1.0,64,0.00,,,0.00,Wunderground v.1.15,2013-07-30 21:50:00,
2013-07-30 17:55:00,75.6,61.7,29.88,SW,221,1.0,1.0,62,0.00,,,0.00,Wunderground v.1.15,2013-07-30 21:55:00,
2013-07-30 18:00:00,75.6,62.1,29.88,SW,231,1.0,1.0,63,0.00,,,0.00,Wunderground v.1.15,2013-07-30 22:00:00,
2013-07-30 18:06:00,75.5,63.3,29.88,SW,231,1.0,1.0,66,0.00,,,0.00,Wunderground v.1.15,2013-07-30 22:06:00,
2013-07-30 18:15:00,75.1,62.5,29.88,SW,236,0.0,1.0,65,0.00,,,0.00,Wunderground v.1.15,2013-07-30 22:15:00,
2013-07-30 18:25:00,75.2,62.2,29.88,SW,236,0.0,1.0,64,0.00,,,0.00,Wunderground v.1.15,2013-07-30 22:25:00,
2013-07-30 18:30:00,75.1,62.5,29.88,SW,236,1.0,1.0,65,0.00,,,0.00,Wunderground v.1.15,2013-07-30 22:30:00,
2013-07-30 18:40:00,74.7,62.6,29.88,SW,236,1.0,1.0,66,0.00,,,0.00,Wunderground v.1.15,2013-07-30 22:40:00,
2013-07-30 18:50:00,74.2,61.2,29.88,West,262,1.0,1.0,64,0.00,,,0.00,Wunderground v.1.15,2013-07-30 22:50:00,
2013-07-30 19:00:00,74.0,61.9,29.88,West,262,0.0,0.0,66,0.00,,,0.00,Wunderground v.1.15,2013-07-30 23:00:00,
2013-07-30 19:06:00,73.7,62.9,29.88,West,262,0.0,0.0,69,0.00,,,0.00,Wunderground v.1.15,2013-07-30 23:06:00,
2013-07-30 19:15:00,73.3,63.3,29.87,West,262,0.0,0.0,71,0.00,,,0.00,Wunderground v.1.15,2013-07-30 23:15:00,
2013-07-30 19:25:00,73.0,65.0,29.87,West,262,0.0,0.0,76,0.00,,,0.00,Wunderground v.1.15,2013-07-30 23:25:00,
2013-07-30 19:30:00,72.8,64.8,29.87,West,262,0.0,0.0,76,0.00,,,0.00,Wunderground v.1.15,2013-07-30 23:30:00,
2013-07-30 19:35:00,72.6,64.2,29.87,West,262,0.0,0.0,75,0.00,,,0.00,Wunderground v.1.15,2013-07-30 23:35:00,
2013-07-30 19:40:00,72.6,64.6,29.87,West,261,0.0,0.0,76,0.00,,,0.00,Wunderground v.1.15,2013-07-30 23:40:00,
2013-07-30 19:50:00,72.1,63.0,29.87,WNW,286,0.0,0.0,73,0.00,,,0.00,Wunderground v.1.15,2013-07-30 23:50:00,
2013-07-30 19:55:00,71.7,64.1,29.87,WNW,286,0.0,0.0,77,0.00,,,0.00,Wunderground v.1.15,2013-07-30 23:55:00,
2013-07-30 20:06:00,70.9,64.8,29.87,WNW,286,0.0,0.0,81,0.00,,,0.00,Wunderground v.1.15,2013-07-31 00:06:00,
2013-07-30 20:15:00,70.1,65.0,29.87,WNW,286,0.0,0.0,84,0.00,,,0.00,Wunderground v.1.15,2013-07-31 00:15:00,
2013-07-30 20:25:00,69.2,64.5,29.88,WNW,286,0.0,0.0,85,0.00,,,0.00,Wunderground v.1.15,2013-07-31 00:25:00,
2013-07-30 20:35:00,67.9,63.2,29.87,WNW,286,0.0,0.0,85,0.00,,,0.00,Wunderground v.1.15,2013-07-31 00:35:00,
2013-07-30 20:45:00,66.9,62.9,29.87,WNW,286,0.0,0.0,87,0.00,,,0.00,Wunderground v.1.15,2013-07-31 00:45:00,
2013-07-30 20:55:00,66.0,62.3,29.87,WNW,286,0.0,0.0,88,0.00,,,0.00,Wunderground v.1.15,2013-07-31 00:55:00,
2013-07-30 21:00:00,65.5,62.2,29.86,WNW,286,0.0,0.0,89,0.00,,,0.00,Wunderground v.1.15,2013-07-31 01:00:00,
2013-07-30 21:06:00,65.0,61.7,29.87,WNW,286,0.0,0.0,89,0.00,,,0.00,Wunderground v.1.15,2013-07-31 01:06:00,
2013-07-30 21:15:00,64.2,61.5,29.87,WNW,286,0.0,0.0,91,0.00,,,0.00,Wunderground v.1.15,2013-07-31 01:15:00,
2013-07-30 21:20:00,63.8,61.1,29.87,WNW,286,0.0,0.0,91,0.00,,,0.00,Wunderground v.1.15,2013-07-31 01:20:00,
2013-07-30 21:30:00,63.1,60.7,29.88,WNW,286,0.0,0.0,92,0.00,,,0.00,Wunderground v.1.15,2013-07-31 01:30:00,
2013-07-30 21:40:00,62.6,60.5,29.88,WNW,286,0.0,0.0,93,0.00,,,0.00,Wunderground v.1.15,2013-07-31 01:40:00,
2013-07-30 21:45:00,62.4,60.3,29.88,WNW,286,0.0,0.0,93,0.00,,,0.00,Wunderground v.1.15,2013-07-31 01:45:00,
2013-07-30 21:55:00,62.1,60.4,29.88,WNW,286,0.0,0.0,94,0.00,,,0.00,Wunderground v.1.15,2013-07-31 01:55:00,
2013-07-30 22:00:00,61.9,60.2,29.88,WNW,286,0.0,0.0,94,0.00,,,0.00,Wunderground v.1.15,2013-07-31 02:00:00,
2013-07-30 22:06:00,61.7,60.0,29.88,WNW,286,0.0,0.0,94,0.00,,,0.00,Wunderground v.1.15,2013-07-31 02:06:00,
2013-07-30 22:15:00,61.5,59.8,29.88,WNW,286,0.0,0.0,94,0.00,,,0.00,Wunderground v.1.15,2013-07-31 02:15:00,
2013-07-30 22:25:00,61.4,59.7,29.88,WNW,286,0.0,0.0,94,0.00,,,0.00,Wunderground v.1.15,2013-07-31 02:25:00,
2013-07-30 22:30:00,61.3,59.6,29.88,WNW,286,0.0,0.0,94,0.00,,,0.00,Wunderground v.1.15,2013-07-31 02:30:00,
2013-07-30 22:35:00,61.2,59.8,29.88,WNW,286,0.0,0.0,95,0.00,,,0.00,Wunderground v.1.15,2013-07-31 02:35:00,
2013-07-30 22:45:00,61.0,59.6,29.89,WNW,286,0.0,0.0,95,0.00,,,0.00,Wunderground v.1.15,2013-07-31 02:45:00,
2013-07-30 22:55:00,60.9,59.5,29.89,WNW,286,0.0,0.0,95,0.00,,,0.00,Wunderground v.1.15,2013-07-31 02:55:00,
2013-07-30 23:05:00,60.8,59.4,29.89,WNW,286,0.0,0.0,95,0.00,,,0.00,Wunderground v.1.15,2013-07-31 03:05:00,
2013-07-30 23:15:00,60.5,59.1,29.88,WNW,286,0.0,0.0,95,0.00,,,0.00,Wunderground v.1.15,2013-07-31 03:15:00,
2013-07-30 23:25:00,60.2,58.8,29.89,WNW,286,0.0,0.0,95,0.00,,,0.00,Wunderground v.1.15,2013-07-31 03:25:00,
2013-07-30 23:35:00,60.1,59.0,29.88,WNW,286,0.0,0.0,96,0.00,,,0.00,Wunderground v.1.15,2013-07-31 03:35:00,
2013-07-30 23:45:00,60.2,59.1,29.88,WNW,286,0.0,0.0,96,0.00,,,0.00,Wunderground v.1.15,2013-07-31 03:45:00,
2013-07-30 23:50:00,60.1,59.0,29.88,WNW,286,0.0,0.0,96,0.00,,,0.00,Wunderground v.1.15,2013-07-31 03:50:00,